AFR26NR LFMN-LFPO
Flight info
| Callsign | AFR26NR |
|---|---|
| Flight time | N/A |
| Altitude | 34000 |
| Route | BADOD DCT NEDRU DCT LTP DCT BULOL DCT IDAVO DCT ARDOL |
| Aircraft | A20N/M-SDE2E3FGHIRWXY/LB1 |
Departure
| Time | 2026-05-01 14:40 |
|---|---|
| Airport | Nice-Côte d'Azur Airport (LFMN) |
Arrival
| Time | N/A |
|---|---|
| Airport | Paris-Orly Airport (LFPO) |
| Time | Latitude | Longitude | Altitude | Speed | Heading |
|---|---|---|---|---|---|
| 2026-05-01 14:19 | 43.65925 | 7.20696 | 29 ft | 0 kts | 291° |
| 2026-05-01 14:31 | 43.65919 | 7.20714 | 28 ft | 2 kts | 291° |
| 2026-05-01 14:31 | 43.65914 | 7.20733 | 28 ft | 2 kts | 291° |
| 2026-05-01 14:32 | 43.65909 | 7.20753 | 28 ft | 2 kts | 291° |
| 2026-05-01 14:32 | 43.65903 | 7.20772 | 28 ft | 2 kts | 291° |
| 2026-05-01 14:32 | 43.65898 | 7.20791 | 28 ft | 2 kts | 291° |
| 2026-05-01 14:32 | 43.65894 | 7.20803 | 28 ft | 1 kts | 285° |
| 2026-05-01 14:33 | 43.65895 | 7.20817 | 28 ft | 1 kts | 229° |
| 2026-05-01 14:33 | 43.65901 | 7.20823 | 28 ft | 0 kts | 214° |
| 2026-05-01 14:33 | 43.65903 | 7.20825 | 28 ft | 0 kts | 219° |
| 2026-05-01 14:35 | 43.65900 | 7.20821 | 28 ft | 3 kts | 218° |
| 2026-05-01 14:36 | 43.65858 | 7.20769 | 28 ft | 11 kts | 224° |
| 2026-05-01 14:36 | 43.65796 | 7.20686 | 28 ft | 12 kts | 224° |
| 2026-05-01 14:36 | 43.65731 | 7.20595 | 28 ft | 13 kts | 227° |
| 2026-05-01 14:36 | 43.65665 | 7.20495 | 28 ft | 14 kts | 227° |
| 2026-05-01 14:37 | 43.65591 | 7.20397 | 28 ft | 14 kts | 223° |
| 2026-05-01 14:37 | 43.65514 | 7.20301 | 27 ft | 15 kts | 225° |
| 2026-05-01 14:37 | 43.65436 | 7.20196 | 27 ft | 15 kts | 221° |
| 2026-05-01 14:37 | 43.65348 | 7.20209 | 27 ft | 15 kts | 119° |
| 2026-05-01 14:38 | 43.65291 | 7.20319 | 26 ft | 13 kts | 143° |
| 2026-05-01 14:38 | 43.65225 | 7.20411 | 26 ft | 13 kts | 138° |
| 2026-05-01 14:38 | 43.65146 | 7.20492 | 26 ft | 14 kts | 141° |
| 2026-05-01 14:38 | 43.65076 | 7.20589 | 26 ft | 13 kts | 134° |
| 2026-05-01 14:39 | 43.65011 | 7.20669 | 26 ft | 12 kts | 137° |
| 2026-05-01 14:39 | 43.64989 | 7.20731 | 26 ft | 4 kts | 55° |
| 2026-05-01 14:39 | 43.65005 | 7.20727 | 26 ft | 2 kts | 354° |
| 2026-05-01 14:39 | 43.65065 | 7.20794 | 26 ft | 35 kts | 44° |
| 2026-05-01 14:40 | 43.65439 | 7.21315 | 25 ft | 112 kts | 45° |
| 2026-05-01 14:40 | 43.66143 | 7.22275 | 107 ft | 163 kts | 46° |
| 2026-05-01 14:40 | 43.66948 | 7.23440 | 659 ft | 173 kts | 58° |
| 2026-05-01 14:40 | 43.67102 | 7.24986 | 1433 ft | 170 kts | 112° |
| 2026-05-01 14:41 | 43.66342 | 7.26141 | 2232 ft | 174 kts | 140° |
| 2026-05-01 14:41 | 43.65333 | 7.27181 | 2783 ft | 189 kts | 137° |
| 2026-05-01 14:41 | 43.64283 | 7.28432 | 3287 ft | 205 kts | 135° |
| 2026-05-01 14:41 | 43.63203 | 7.29770 | 3914 ft | 215 kts | 135° |
| 2026-05-01 14:42 | 43.62062 | 7.31130 | 4651 ft | 223 kts | 143° |
| 2026-05-01 14:42 | 43.60603 | 7.31784 | 5549 ft | 230 kts | 179° |
| 2026-05-01 14:42 | 43.59086 | 7.31154 | 6359 ft | 238 kts | 210° |
| 2026-05-01 14:42 | 43.57690 | 7.29916 | 7179 ft | 242 kts | 212° |
| 2026-05-01 14:43 | 43.56285 | 7.28662 | 8008 ft | 245 kts | 213° |
| 2026-05-01 14:43 | 43.55088 | 7.27038 | 8821 ft | 248 kts | 244° |
| 2026-05-01 14:43 | 43.54728 | 7.24767 | 9634 ft | 248 kts | 278° |
| 2026-05-01 14:43 | 43.55298 | 7.22598 | 10419 ft | 245 kts | 309° |
| 2026-05-01 14:44 | 43.56377 | 7.20771 | 11224 ft | 248 kts | 313° |
| 2026-05-01 14:44 | 43.58567 | 7.17077 | 12792 ft | 255 kts | 312° |
| 2026-05-01 14:44 | 43.59662 | 7.15174 | 13570 ft | 258 kts | 311° |
| 2026-05-01 14:45 | 43.60813 | 7.13279 | 14337 ft | 260 kts | 316° |
| 2026-05-01 14:45 | 43.63579 | 7.09862 | 15425 ft | 283 kts | 323° |
| 2026-05-01 14:45 | 43.65137 | 7.08105 | 15818 ft | 301 kts | 323° |
| 2026-05-01 14:46 | 43.66814 | 7.06211 | 16200 ft | 319 kts | 323° |
| 2026-05-01 14:46 | 43.70427 | 7.02104 | 16975 ft | 351 kts | 322° |
| 2026-05-01 14:46 | 43.72306 | 6.99953 | 17619 ft | 357 kts | 322° |
| 2026-05-01 14:47 | 43.74217 | 6.97759 | 18338 ft | 360 kts | 322° |
| 2026-05-01 14:47 | 43.76131 | 6.95563 | 19053 ft | 364 kts | 322° |
| 2026-05-01 14:47 | 43.78092 | 6.93311 | 19744 ft | 367 kts | 322° |
| 2026-05-01 14:48 | 43.82035 | 6.88775 | 21109 ft | 373 kts | 322° |
| 2026-05-01 14:48 | 43.84015 | 6.86494 | 21771 ft | 377 kts | 322° |
| 2026-05-01 14:48 | 43.88081 | 6.81802 | 23017 ft | 384 kts | 322° |
| 2026-05-01 14:49 | 43.92208 | 6.77074 | 24235 ft | 389 kts | 323° |
| 2026-05-01 14:49 | 43.96651 | 6.72829 | 25414 ft | 393 kts | 330° |
| 2026-05-01 14:50 | 44.00601 | 6.69637 | 26333 ft | 396 kts | 331° |
| 2026-05-01 14:50 | 44.06186 | 6.65167 | 27551 ft | 400 kts | 330° |
| 2026-05-01 14:51 | 44.08586 | 6.63238 | 28039 ft | 402 kts | 330° |
| 2026-05-01 14:51 | 44.13479 | 6.59293 | 29013 ft | 406 kts | 330° |
| 2026-05-01 14:52 | 44.18389 | 6.55327 | 29905 ft | 410 kts | 330° |
| 2026-05-01 14:52 | 44.20847 | 6.53341 | 30320 ft | 412 kts | 330° |
| 2026-05-01 14:52 | 44.25812 | 6.49338 | 31106 ft | 417 kts | 330° |
| 2026-05-01 14:53 | 44.28334 | 6.47301 | 31628 ft | 415 kts | 330° |
| 2026-05-01 14:53 | 44.30795 | 6.45309 | 32172 ft | 413 kts | 330° |
| 2026-05-01 14:53 | 44.33277 | 6.43295 | 32689 ft | 410 kts | 329° |
| 2026-05-01 14:53 | 44.35737 | 6.41296 | 33125 ft | 410 kts | 329° |
| 2026-05-01 14:54 | 44.38175 | 6.39312 | 33490 ft | 411 kts | 329° |
| 2026-05-01 14:54 | 44.40649 | 6.37295 | 33831 ft | 411 kts | 329° |
| 2026-05-01 14:54 | 44.43125 | 6.35275 | 34160 ft | 412 kts | 329° |
| 2026-05-01 14:54 | 44.45589 | 6.33262 | 34268 ft | 414 kts | 328° |
| 2026-05-01 14:55 | 44.48064 | 6.31238 | 34277 ft | 414 kts | 328° |
| 2026-05-01 14:55 | 44.53067 | 6.27142 | 34285 ft | 415 kts | 328° |
| 2026-05-01 14:56 | 44.58041 | 6.23062 | 34290 ft | 416 kts | 328° |
| 2026-05-01 14:56 | 44.63029 | 6.18962 | 34292 ft | 416 kts | 328° |
| 2026-05-01 14:57 | 44.68003 | 6.14868 | 34296 ft | 416 kts | 328° |
| 2026-05-01 14:57 | 44.75460 | 6.08712 | 34299 ft | 415 kts | 328° |
| 2026-05-01 14:58 | 44.80412 | 6.04612 | 34302 ft | 416 kts | 328° |
| 2026-05-01 14:58 | 44.85417 | 6.00460 | 34299 ft | 417 kts | 328° |
| 2026-05-01 14:59 | 44.90384 | 5.96326 | 34292 ft | 417 kts | 328° |
| 2026-05-01 14:59 | 44.95368 | 5.92171 | 34284 ft | 417 kts | 328° |
| 2026-05-01 15:00 | 45.02856 | 5.85911 | 34284 ft | 418 kts | 328° |
| 2026-05-01 15:01 | 45.07836 | 5.81717 | 34288 ft | 418 kts | 327° |
| 2026-05-01 15:01 | 45.12739 | 5.77285 | 34291 ft | 417 kts | 326° |
| 2026-05-01 15:02 | 45.17607 | 5.72827 | 34285 ft | 417 kts | 326° |